sensor_id;sensor_type;location;lat;lon;timestamp;temperature;humidity
2855;DHT22;1435;49.472;10.940;2024-01-06T00:01:28;5.60;99.90
2855;DHT22;1435;49.472;10.940;2024-01-06T00:06:31;5.60;99.90
2855;DHT22;1435;49.472;10.940;2024-01-06T00:11:32;5.60;99.90
2855;DHT22;1435;49.472;10.940;2024-01-06T00:16:34;5.50;99.90
2855;DHT22;1435;49.472;10.940;2024-01-06T00:21:37;5.50;99.90
2855;DHT22;1435;49.472;10.940;2024-01-06T00:26:39;5.50;99.90
2855;DHT22;1435;49.472;10.940;2024-01-06T00:31:40;5.50;99.90
2855;DHT22;1435;49.472;10.940;2024-01-06T00:36:43;5.40;99.90
2855;DHT22;1435;49.472;10.940;2024-01-06T00:41:45;5.40;99.90
2855;DHT22;1435;49.472;10.940;2024-01-06T00:46:46;5.40;99.90
2855;DHT22;1435;49.472;10.940;2024-01-06T00:51:49;5.40;99.90
2855;DHT22;1435;49.472;10.940;2024-01-06T00:56:51;5.30;99.90
2855;DHT22;1435;49.472;10.940;2024-01-06T01:01:53;5.40;99.90
2855;DHT22;1435;49.472;10.940;2024-01-06T01:06:56;5.30;99.90
2855;DHT22;1435;49.472;10.940;2024-01-06T01:11:57;5.20;99.90
2855;DHT22;1435;49.472;10.940;2024-01-06T01:16:59;5.10;99.90
2855;DHT22;1435;49.472;10.940;2024-01-06T01:22:02;5.10;99.90
2855;DHT22;1435;49.472;10.940;2024-01-06T01:27:04;5.00;99.90
2855;DHT22;1435;49.472;10.940;2024-01-06T01:32:06;4.80;99.90
2855;DHT22;1435;49.472;10.940;2024-01-06T01:37:09;4.80;99.90
2855;DHT22;1435;49.472;10.940;2024-01-06T01:42:11;4.90;99.90
2855;DHT22;1435;49.472;10.940;2024-01-06T01:47:12;4.90;99.90
2855;DHT22;1435;49.472;10.940;2024-01-06T01:52:20;4.90;99.90
2855;DHT22;1435;49.472;10.940;2024-01-06T01:57:24;5.00;99.90
2855;DHT22;1435;49.472;10.940;2024-01-06T02:02:26;5.10;99.90
2855;DHT22;1435;49.472;10.940;2024-01-06T02:07:30;5.10;99.90
2855;DHT22;1435;49.472;10.940;2024-01-06T02:12:31;5.00;99.90
2855;DHT22;1435;49.472;10.940;2024-01-06T02:17:33;5.10;99.90
2855;DHT22;1435;49.472;10.940;2024-01-06T02:22:37;5.10;99.90
2855;DHT22;1435;49.472;10.940;2024-01-06T02:27:38;5.10;99.90
2855;DHT22;1435;49.472;10.940;2024-01-06T02:32:40;5.20;99.90
2855;DHT22;1435;49.472;10.940;2024-01-06T02:37:43;5.30;99.90
2855;DHT22;1435;49.472;10.940;2024-01-06T02:42:45;5.30;99.90
2855;DHT22;1435;49.472;10.940;2024-01-06T02:47:46;5.20;99.90
2855;DHT22;1435;49.472;10.940;2024-01-06T02:52:49;5.10;99.90
2855;DHT22;1435;49.472;10.940;2024-01-06T02:57:51;5.10;99.90
2855;DHT22;1435;49.472;10.940;2024-01-06T03:02:52;5.20;99.90
2855;DHT22;1435;49.472;10.940;2024-01-06T03:07:55;5.20;99.90
2855;DHT22;1435;49.472;10.940;2024-01-06T03:12:57;5.30;99.90
2855;DHT22;1435;49.472;10.940;2024-01-06T03:17:59;5.40;99.90
2855;DHT22;1435;49.472;10.940;2024-01-06T03:23:02;5.50;99.90
2855;DHT22;1435;49.472;10.940;2024-01-06T03:28:04;5.50;99.90
2855;DHT22;1435;49.472;10.940;2024-01-06T03:33:06;5.60;99.90
2855;DHT22;1435;49.472;10.940;2024-01-06T03:38:09;5.60;99.90
2855;DHT22;1435;49.472;10.940;2024-01-06T03:43:10;5.60;99.90
2855;DHT22;1435;49.472;10.940;2024-01-06T03:48:12;5.60;99.90
2855;DHT22;1435;49.472;10.940;2024-01-06T03:53:15;5.60;99.90
2855;DHT22;1435;49.472;10.940;2024-01-06T03:58:17;5.60;99.90
2855;DHT22;1435;49.472;10.940;2024-01-06T04:03:18;5.70;99.90
2855;DHT22;1435;49.472;10.940;2024-01-06T04:08:21;5.70;99.90
2855;DHT22;1435;49.472;10.940;2024-01-06T04:13:23;5.80;99.90
2855;DHT22;1435;49.472;10.940;2024-01-06T04:18:25;5.60;99.90
2855;DHT22;1435;49.472;10.940;2024-01-06T04:23:28;5.70;99.90
2855;DHT22;1435;49.472;10.940;2024-01-06T04:28:29;5.70;99.90
2855;DHT22;1435;49.472;10.940;2024-01-06T04:33:31;5.80;99.90
2855;DHT22;1435;49.472;10.940;2024-01-06T04:38:34;5.70;99.90
2855;DHT22;1435;49.472;10.940;2024-01-06T04:43:36;5.50;99.90
2855;DHT22;1435;49.472;10.940;2024-01-06T04:48:40;5.50;99.90
2855;DHT22;1435;49.472;10.940;2024-01-06T04:53:45;5.50;99.90
2855;DHT22;1435;49.472;10.940;2024-01-06T04:58:46;5.60;99.90
2855;DHT22;1435;49.472;10.940;2024-01-06T05:03:48;5.60;99.90
2855;DHT22;1435;49.472;10.940;2024-01-06T05:08:51;5.50;99.90
2855;DHT22;1435;49.472;10.940;2024-01-06T05:13:53;5.50;99.90
2855;DHT22;1435;49.472;10.940;2024-01-06T05:18:54;5.50;99.90
2855;DHT22;1435;49.472;10.940;2024-01-06T05:23:57;5.40;99.90
2855;DHT22;1435;49.472;10.940;2024-01-06T05:28:59;5.40;99.90
2855;DHT22;1435;49.472;10.940;2024-01-06T05:34:00;5.40;99.90
2855;DHT22;1435;49.472;10.940;2024-01-06T05:39:03;5.30;99.90
2855;DHT22;1435;49.472;10.940;2024-01-06T05:44:05;5.30;99.90
2855;DHT22;1435;49.472;10.940;2024-01-06T05:49:07;5.30;99.90
2855;DHT22;1435;49.472;10.940;2024-01-06T05:54:12;5.30;99.90
2855;DHT22;1435;49.472;10.940;2024-01-06T05:59:14;5.30;99.90
2855;DHT22;1435;49.472;10.940;2024-01-06T06:04:15;5.30;99.90
2855;DHT22;1435;49.472;10.940;2024-01-06T06:09:18;5.30;99.90
2855;DHT22;1435;49.472;10.940;2024-01-06T06:14:22;5.20;99.90
2855;DHT22;1435;49.472;10.940;2024-01-06T06:19:23;5.10;99.90
2855;DHT22;1435;49.472;10.940;2024-01-06T06:24:26;5.00;99.90
2855;DHT22;1435;49.472;10.940;2024-01-06T06:29:28;4.90;99.90
2855;DHT22;1435;49.472;10.940;2024-01-06T06:34:30;4.90;99.90
2855;DHT22;1435;49.472;10.940;2024-01-06T06:39:33;4.90;99.90
2855;DHT22;1435;49.472;10.940;2024-01-06T06:44:35;4.90;99.90
2855;DHT22;1435;49.472;10.940;2024-01-06T06:49:37;4.90;99.90
2855;DHT22;1435;49.472;10.940;2024-01-06T06:54:40;4.90;99.90
2855;DHT22;1435;49.472;10.940;2024-01-06T06:59:41;4.90;99.90
2855;DHT22;1435;49.472;10.940;2024-01-06T07:04:43;4.80;99.90
2855;DHT22;1435;49.472;10.940;2024-01-06T07:09:46;4.90;99.90
2855;DHT22;1435;49.472;10.940;2024-01-06T07:14:48;4.90;99.90
2855;DHT22;1435;49.472;10.940;2024-01-06T07:19:50;4.80;99.90
2855;DHT22;1435;49.472;10.940;2024-01-06T07:24:53;4.80;99.90
2855;DHT22;1435;49.472;10.940;2024-01-06T07:29:54;4.70;99.90
2855;DHT22;1435;49.472;10.940;2024-01-06T07:34:56;4.70;99.90
2855;DHT22;1435;49.472;10.940;2024-01-06T07:39:59;4.70;99.90
2855;DHT22;1435;49.472;10.940;2024-01-06T07:45:01;4.60;99.90
2855;DHT22;1435;49.472;10.940;2024-01-06T07:50:03;4.60;99.90
2855;DHT22;1435;49.472;10.940;2024-01-06T07:55:07;4.60;99.90
2855;DHT22;1435;49.472;10.940;2024-01-06T08:00:10;4.60;99.90
2855;DHT22;1435;49.472;10.940;2024-01-06T08:05:14;4.60;99.90
2855;DHT22;1435;49.472;10.940;2024-01-06T08:10:18;4.50;99.90
2855;DHT22;1435;49.472;10.940;2024-01-06T08:15:21;4.60;99.90
2855;DHT22;1435;49.472;10.940;2024-01-06T08:20:22;4.60;99.90
2855;DHT22;1435;49.472;10.940;2024-01-06T08:25:25;4.70;99.90
2855;DHT22;1435;49.472;10.940;2024-01-06T08:30:28;4.80;99.90
2855;DHT22;1435;49.472;10.940;2024-01-06T08:35:29;4.80;99.90
2855;DHT22;1435;49.472;10.940;2024-01-06T08:40:33;4.90;99.90
2855;DHT22;1435;49.472;10.940;2024-01-06T08:45:35;4.90;99.90
2855;DHT22;1435;49.472;10.940;2024-01-06T08:50:36;5.00;99.90
2855;DHT22;1435;49.472;10.940;2024-01-06T08:55:39;5.10;99.90
2855;DHT22;1435;49.472;10.940;2024-01-06T09:00:41;5.20;99.90
2855;DHT22;1435;49.472;10.940;2024-01-06T09:05:42;5.20;99.90
2855;DHT22;1435;49.472;10.940;2024-01-06T09:10:46;5.30;99.90
2855;DHT22;1435;49.472;10.940;2024-01-06T09:15:48;5.40;99.90
2855;DHT22;1435;49.472;10.940;2024-01-06T09:20:49;5.40;99.90
2855;DHT22;1435;49.472;10.940;2024-01-06T09:25:52;5.40;99.90
2855;DHT22;1435;49.472;10.940;2024-01-06T09:30:54;5.50;99.90
2855;DHT22;1435;49.472;10.940;2024-01-06T09:35:56;5.60;99.90
2855;DHT22;1435;49.472;10.940;2024-01-06T09:40:59;5.60;99.90
2855;DHT22;1435;49.472;10.940;2024-01-06T09:46:06;5.70;99.90
2855;DHT22;1435;49.472;10.940;2024-01-06T09:51:11;5.80;99.90
2855;DHT22;1435;49.472;10.940;2024-01-06T09:56:14;5.80;99.90
2855;DHT22;1435;49.472;10.940;2024-01-06T10:01:17;5.90;99.90
2855;DHT22;1435;49.472;10.940;2024-01-06T10:06:19;5.90;99.90
2855;DHT22;1435;49.472;10.940;2024-01-06T10:11:23;6.00;99.90
2855;DHT22;1435;49.472;10.940;2024-01-06T10:16:25;6.00;99.90
2855;DHT22;1435;49.472;10.940;2024-01-06T10:21:26;6.10;99.90
2855;DHT22;1435;49.472;10.940;2024-01-06T10:26:29;6.20;99.90
2855;DHT22;1435;49.472;10.940;2024-01-06T10:31:32;6.20;99.90
2855;DHT22;1435;49.472;10.940;2024-01-06T10:36:35;6.30;99.90
2855;DHT22;1435;49.472;10.940;2024-01-06T10:41:41;6.40;99.90
2855;DHT22;1435;49.472;10.940;2024-01-06T10:46:44;6.40;99.90
2855;DHT22;1435;49.472;10.940;2024-01-06T10:51:46;6.50;99.90
2855;DHT22;1435;49.472;10.940;2024-01-06T10:56:51;6.60;99.90
2855;DHT22;1435;49.472;10.940;2024-01-06T11:01:54;6.60;99.90
2855;DHT22;1435;49.472;10.940;2024-01-06T11:06:56;6.70;99.90
2855;DHT22;1435;49.472;10.940;2024-01-06T11:12:00;6.70;99.90
2855;DHT22;1435;49.472;10.940;2024-01-06T11:17:02;6.70;99.90
2855;DHT22;1435;49.472;10.940;2024-01-06T11:22:22;6.70;99.90
2855;DHT22;1435;49.472;10.940;2024-01-06T11:27:27;6.80;99.90
2855;DHT22;1435;49.472;10.940;2024-01-06T11:32:30;6.80;99.90
2855;DHT22;1435;49.472;10.940;2024-01-06T11:37:37;6.80;99.90
2855;DHT22;1435;49.472;10.940;2024-01-06T11:42:41;6.90;99.90
2855;DHT22;1435;49.472;10.940;2024-01-06T11:47:47;6.90;99.90
2855;DHT22;1435;49.472;10.940;2024-01-06T11:52:49;6.90;99.90
2855;DHT22;1435;49.472;10.940;2024-01-06T11:57:53;6.90;99.90
2855;DHT22;1435;49.472;10.940;2024-01-06T12:02:56;6.90;99.90
2855;DHT22;1435;49.472;10.940;2024-01-06T12:08:00;7.00;99.90
2855;DHT22;1435;49.472;10.940;2024-01-06T12:13:04;7.00;99.90
2855;DHT22;1435;49.472;10.940;2024-01-06T12:18:08;7.00;99.90
2855;DHT22;1435;49.472;10.940;2024-01-06T12:23:10;7.10;99.90
2855;DHT22;1435;49.472;10.940;2024-01-06T12:28:15;7.10;99.90
2855;DHT22;1435;49.472;10.940;2024-01-06T12:33:17;7.10;99.90
2855;DHT22;1435;49.472;10.940;2024-01-06T12:38:20;7.10;99.90
2855;DHT22;1435;49.472;10.940;2024-01-06T12:43:22;7.20;99.90
2855;DHT22;1435;49.472;10.940;2024-01-06T12:48:24;7.20;99.90
2855;DHT22;1435;49.472;10.940;2024-01-06T12:53:26;7.20;99.90
2855;DHT22;1435;49.472;10.940;2024-01-06T12:58:29;7.20;99.90
2855;DHT22;1435;49.472;10.940;2024-01-06T13:03:31;7.30;99.90
2855;DHT22;1435;49.472;10.940;2024-01-06T13:08:33;7.30;99.90
2855;DHT22;1435;49.472;10.940;2024-01-06T13:13:36;7.30;99.90
2855;DHT22;1435;49.472;10.940;2024-01-06T13:18:38;7.20;99.90
2855;DHT22;1435;49.472;10.940;2024-01-06T13:23:40;7.30;99.90
2855;DHT22;1435;49.472;10.940;2024-01-06T13:28:43;7.30;99.90
2855;DHT22;1435;49.472;10.940;2024-01-06T13:33:44;7.40;99.90
2855;DHT22;1435;49.472;10.940;2024-01-06T13:38:46;7.30;99.90
2855;DHT22;1435;49.472;10.940;2024-01-06T13:43:50;7.30;99.90
2855;DHT22;1435;49.472;10.940;2024-01-06T13:48:51;7.30;99.90
2855;DHT22;1435;49.472;10.940;2024-01-06T13:53:53;7.40;99.90
2855;DHT22;1435;49.472;10.940;2024-01-06T13:58:56;7.40;99.90
2855;DHT22;1435;49.472;10.940;2024-01-06T14:03:58;7.40;99.90
2855;DHT22;1435;49.472;10.940;2024-01-06T14:09:00;7.40;99.90
2855;DHT22;1435;49.472;10.940;2024-01-06T14:14:03;7.40;99.90
2855;DHT22;1435;49.472;10.940;2024-01-06T14:19:05;7.40;99.90
2855;DHT22;1435;49.472;10.940;2024-01-06T14:24:07;7.40;99.90
2855;DHT22;1435;49.472;10.940;2024-01-06T14:29:10;7.40;99.90
2855;DHT22;1435;49.472;10.940;2024-01-06T14:34:12;7.40;99.90
2855;DHT22;1435;49.472;10.940;2024-01-06T14:39:14;7.50;99.90
2855;DHT22;1435;49.472;10.940;2024-01-06T14:44:17;7.40;99.90
2855;DHT22;1435;49.472;10.940;2024-01-06T14:49:20;7.40;99.90
2855;DHT22;1435;49.472;10.940;2024-01-06T14:54:21;7.40;99.90
2855;DHT22;1435;49.472;10.940;2024-01-06T14:59:24;7.50;99.90
2855;DHT22;1435;49.472;10.940;2024-01-06T15:04:26;7.40;99.90
2855;DHT22;1435;49.472;10.940;2024-01-06T15:09:28;7.50;99.90
2855;DHT22;1435;49.472;10.940;2024-01-06T15:14:31;7.50;99.90
2855;DHT22;1435;49.472;10.940;2024-01-06T15:19:32;7.40;99.90
2855;DHT22;1435;49.472;10.940;2024-01-06T15:24:34;7.40;99.90
2855;DHT22;1435;49.472;10.940;2024-01-06T15:29:37;7.30;99.90
2855;DHT22;1435;49.472;10.940;2024-01-06T15:34:38;7.20;99.90
2855;DHT22;1435;49.472;10.940;2024-01-06T15:39:40;7.10;99.90
2855;DHT22;1435;49.472;10.940;2024-01-06T15:44:43;7.10;99.90
2855;DHT22;1435;49.472;10.940;2024-01-06T15:49:45;6.90;99.90
2855;DHT22;1435;49.472;10.940;2024-01-06T15:54:47;6.90;99.90
2855;DHT22;1435;49.472;10.940;2024-01-06T15:59:50;6.90;99.90
2855;DHT22;1435;49.472;10.940;2024-01-06T16:04:53;6.80;99.90
2855;DHT22;1435;49.472;10.940;2024-01-06T16:09:55;6.80;99.90
2855;DHT22;1435;49.472;10.940;2024-01-06T16:14:58;6.80;99.90
2855;DHT22;1435;49.472;10.940;2024-01-06T16:19:59;6.80;99.90
2855;DHT22;1435;49.472;10.940;2024-01-06T16:25:01;6.80;99.90
2855;DHT22;1435;49.472;10.940;2024-01-06T16:30:06;6.70;99.90
2855;DHT22;1435;49.472;10.940;2024-01-06T16:35:08;6.70;99.90
2855;DHT22;1435;49.472;10.940;2024-01-06T16:40:10;6.70;99.90
2855;DHT22;1435;49.472;10.940;2024-01-06T16:45:14;6.70;99.90
2855;DHT22;1435;49.472;10.940;2024-01-06T16:50:15;6.60;99.90
2855;DHT22;1435;49.472;10.940;2024-01-06T16:55:17;6.70;99.90
2855;DHT22;1435;49.472;10.940;2024-01-06T17:00:20;6.60;99.90
2855;DHT22;1435;49.472;10.940;2024-01-06T17:05:22;6.60;99.90
2855;DHT22;1435;49.472;10.940;2024-01-06T17:10:24;6.70;99.90
2855;DHT22;1435;49.472;10.940;2024-01-06T17:15:27;6.70;99.90
2855;DHT22;1435;49.472;10.940;2024-01-06T17:20:29;6.60;99.90
2855;DHT22;1435;49.472;10.940;2024-01-06T17:25:31;6.60;99.90
2855;DHT22;1435;49.472;10.940;2024-01-06T17:30:35;6.70;99.90
2855;DHT22;1435;49.472;10.940;2024-01-06T17:35:38;6.70;99.90
2855;DHT22;1435;49.472;10.940;2024-01-06T17:40:39;6.60;99.90
2855;DHT22;1435;49.472;10.940;2024-01-06T17:45:42;6.60;99.90
2855;DHT22;1435;49.472;10.940;2024-01-06T17:50:44;6.70;99.90
2855;DHT22;1435;49.472;10.940;2024-01-06T17:55:46;6.70;99.90
2855;DHT22;1435;49.472;10.940;2024-01-06T18:00:49;6.70;99.90
2855;DHT22;1435;49.472;10.940;2024-01-06T18:05:51;6.70;99.90
2855;DHT22;1435;49.472;10.940;2024-01-06T18:10:52;6.70;99.90
2855;DHT22;1435;49.472;10.940;2024-01-06T18:15:55;6.70;99.90
2855;DHT22;1435;49.472;10.940;2024-01-06T18:20:57;6.70;99.90
2855;DHT22;1435;49.472;10.940;2024-01-06T18:25:59;6.70;99.90
2855;DHT22;1435;49.472;10.940;2024-01-06T18:31:02;6.70;99.90
2855;DHT22;1435;49.472;10.940;2024-01-06T18:36:04;6.70;99.90
2855;DHT22;1435;49.472;10.940;2024-01-06T18:41:06;6.60;99.90
2855;DHT22;1435;49.472;10.940;2024-01-06T18:46:10;6.50;99.90
2855;DHT22;1435;49.472;10.940;2024-01-06T18:51:12;6.50;99.90
2855;DHT22;1435;49.472;10.940;2024-01-06T18:56:14;6.50;99.90
2855;DHT22;1435;49.472;10.940;2024-01-06T19:01:17;6.60;99.90
2855;DHT22;1435;49.472;10.940;2024-01-06T19:06:18;6.70;99.90
2855;DHT22;1435;49.472;10.940;2024-01-06T19:11:20;6.70;99.90
2855;DHT22;1435;49.472;10.940;2024-01-06T19:16:23;6.70;99.90
2855;DHT22;1435;49.472;10.940;2024-01-06T19:21:24;6.70;99.90
2855;DHT22;1435;49.472;10.940;2024-01-06T19:26:26;6.70;99.90
2855;DHT22;1435;49.472;10.940;2024-01-06T19:31:29;6.70;99.90
2855;DHT22;1435;49.472;10.940;2024-01-06T19:36:31;6.70;99.90
2855;DHT22;1435;49.472;10.940;2024-01-06T19:41:32;6.70;99.90
2855;DHT22;1435;49.472;10.940;2024-01-06T19:46:35;6.70;99.90
2855;DHT22;1435;49.472;10.940;2024-01-06T19:51:40;6.70;99.90
2855;DHT22;1435;49.472;10.940;2024-01-06T19:56:41;6.60;99.90
2855;DHT22;1435;49.472;10.940;2024-01-06T20:01:44;6.70;99.90
2855;DHT22;1435;49.472;10.940;2024-01-06T20:06:46;6.60;99.90
2855;DHT22;1435;49.472;10.940;2024-01-06T20:11:48;6.60;99.90
2855;DHT22;1435;49.472;10.940;2024-01-06T20:16:51;6.60;99.90
2855;DHT22;1435;49.472;10.940;2024-01-06T20:21:55;6.70;99.90
2855;DHT22;1435;49.472;10.940;2024-01-06T20:26:57;6.60;99.90
2855;DHT22;1435;49.472;10.940;2024-01-06T20:32:00;6.70;99.90
2855;DHT22;1435;49.472;10.940;2024-01-06T20:37:02;6.70;99.90
2855;DHT22;1435;49.472;10.940;2024-01-06T20:42:04;6.70;99.90
2855;DHT22;1435;49.472;10.940;2024-01-06T20:47:07;6.70;99.90
2855;DHT22;1435;49.472;10.940;2024-01-06T20:52:09;6.70;99.90
2855;DHT22;1435;49.472;10.940;2024-01-06T20:57:11;6.70;99.90
2855;DHT22;1435;49.472;10.940;2024-01-06T21:02:14;6.70;99.90
2855;DHT22;1435;49.472;10.940;2024-01-06T21:07:17;6.70;99.90
2855;DHT22;1435;49.472;10.940;2024-01-06T21:12:19;6.70;99.90
2855;DHT22;1435;49.472;10.940;2024-01-06T21:17:22;6.70;99.90
2855;DHT22;1435;49.472;10.940;2024-01-06T21:22:24;6.70;99.90
2855;DHT22;1435;49.472;10.940;2024-01-06T21:27:26;6.70;99.90
2855;DHT22;1435;49.472;10.940;2024-01-06T21:32:29;6.70;99.90
2855;DHT22;1435;49.472;10.940;2024-01-06T21:37:31;6.70;99.90
2855;DHT22;1435;49.472;10.940;2024-01-06T21:42:33;6.70;99.90
2855;DHT22;1435;49.472;10.940;2024-01-06T21:47:37;6.70;99.90
2855;DHT22;1435;49.472;10.940;2024-01-06T21:52:39;6.70;99.90
2855;DHT22;1435;49.472;10.940;2024-01-06T21:57:40;6.70;99.90
2855;DHT22;1435;49.472;10.940;2024-01-06T22:02:43;6.70;99.90
2855;DHT22;1435;49.472;10.940;2024-01-06T22:07:45;6.70;99.90
2855;DHT22;1435;49.472;10.940;2024-01-06T22:12:47;6.70;99.90
2855;DHT22;1435;49.472;10.940;2024-01-06T22:17:50;6.70;99.90
2855;DHT22;1435;49.472;10.940;2024-01-06T22:22:53;6.70;99.90
2855;DHT22;1435;49.472;10.940;2024-01-06T22:27:54;6.70;99.90
2855;DHT22;1435;49.472;10.940;2024-01-06T22:32:58;6.70;99.90
2855;DHT22;1435;49.472;10.940;2024-01-06T22:38:01;6.70;99.90
2855;DHT22;1435;49.472;10.940;2024-01-06T22:43:03;6.60;99.90
2855;DHT22;1435;49.472;10.940;2024-01-06T22:48:07;6.60;99.90
2855;DHT22;1435;49.472;10.940;2024-01-06T22:53:09;6.60;99.90
2855;DHT22;1435;49.472;10.940;2024-01-06T22:58:10;6.60;99.90
2855;DHT22;1435;49.472;10.940;2024-01-06T23:03:13;6.60;99.90
2855;DHT22;1435;49.472;10.940;2024-01-06T23:08:15;6.60;99.90
2855;DHT22;1435;49.472;10.940;2024-01-06T23:13:17;6.60;99.90
2855;DHT22;1435;49.472;10.940;2024-01-06T23:18:22;6.60;99.90
2855;DHT22;1435;49.472;10.940;2024-01-06T23:23:24;6.60;99.90
2855;DHT22;1435;49.472;10.940;2024-01-06T23:28:26;6.60;99.90
2855;DHT22;1435;49.472;10.940;2024-01-06T23:33:29;6.60;99.90
2855;DHT22;1435;49.472;10.940;2024-01-06T23:38:32;6.60;99.90
2855;DHT22;1435;49.472;10.940;2024-01-06T23:43:34;6.60;99.90
2855;DHT22;1435;49.472;10.940;2024-01-06T23:48:37;6.60;99.90
2855;DHT22;1435;49.472;10.940;2024-01-06T23:53:39;6.60;99.90
2855;DHT22;1435;49.472;10.940;2024-01-06T23:58:40;6.60;99.90
